createdAt,value
2023-08-10T00:00:16.162Z,21.62
2023-08-10T00:02:45.676Z,21.66
2023-08-10T00:05:13.808Z,21.67
2023-08-10T00:07:41.774Z,21.73
2023-08-10T00:10:09.925Z,21.76
2023-08-10T00:12:39.259Z,21.77
2023-08-10T00:15:08.360Z,21.75
2023-08-10T00:17:36.553Z,21.75
2023-08-10T00:20:08.897Z,21.75
2023-08-10T00:22:37.039Z,21.77
2023-08-10T00:25:06.545Z,21.76
2023-08-10T00:27:37.050Z,21.73
2023-08-10T00:30:05.743Z,21.77
2023-08-10T00:32:34.295Z,21.85
2023-08-10T00:35:02.512Z,21.92
2023-08-10T00:37:31.132Z,21.98
2023-08-10T00:39:58.890Z,22.03
2023-08-10T00:42:26.529Z,22.07
2023-08-10T00:44:54.302Z,22.10
2023-08-10T00:47:22.759Z,22.10
2023-08-10T00:49:50.747Z,22.13
2023-08-10T00:52:18.683Z,22.10
2023-08-10T00:54:46.823Z,22.08
2023-08-10T00:57:14.556Z,22.08
2023-08-10T00:59:43.317Z,22.10
2023-08-10T01:02:11.982Z,22.07
2023-08-10T01:04:40.722Z,22.01
2023-08-10T01:07:13.840Z,21.94
2023-08-10T01:10:07.373Z,21.89
2023-08-10T01:12:42.993Z,21.82
2023-08-10T01:15:51.013Z,21.73
2023-08-10T01:18:24.346Z,21.65
2023-08-10T01:20:53.530Z,21.60
2023-08-10T01:23:33.310Z,21.63
2023-08-10T01:26:01.622Z,21.69
2023-08-10T01:28:33.098Z,21.70
2023-08-10T01:31:02.128Z,21.67
2023-08-10T01:33:31.292Z,21.69
2023-08-10T01:35:58.959Z,21.72
2023-08-10T01:38:26.842Z,21.77
2023-08-10T01:40:55.724Z,21.79
2023-08-10T01:43:23.576Z,21.85
2023-08-10T01:45:55.235Z,21.86
2023-08-10T01:48:31.142Z,21.86
2023-08-10T01:51:02.166Z,21.89
2023-08-10T01:53:38.130Z,21.92
2023-08-10T01:56:06.307Z,21.89
2023-08-10T01:58:34.409Z,21.85
2023-08-10T02:01:02.891Z,21.86
2023-08-10T02:03:30.946Z,21.82
2023-08-10T02:05:58.967Z,21.79
2023-08-10T02:08:26.939Z,21.80
2023-08-10T02:10:55.083Z,21.77
2023-08-10T02:13:23.462Z,21.75
2023-08-10T02:15:52.035Z,21.73
2023-08-10T02:18:20.242Z,21.75
2023-08-10T02:20:48.394Z,21.72
2023-08-10T02:23:16.357Z,21.73
2023-08-10T02:25:44.243Z,21.73
2023-08-10T02:28:12.185Z,21.69
2023-08-10T02:30:40.143Z,21.67
2023-08-10T02:33:08.083Z,21.60
2023-08-10T02:35:35.960Z,21.56
2023-08-10T02:38:03.941Z,21.55
2023-08-10T02:40:31.889Z,21.50
2023-08-10T02:42:59.704Z,21.48
2023-08-10T02:45:28.419Z,21.43
2023-08-10T02:47:56.483Z,21.37
2023-08-10T02:50:24.401Z,21.34
2023-08-10T02:52:52.513Z,21.31
2023-08-10T02:55:20.340Z,21.28
2023-08-10T02:57:48.204Z,21.24
2023-08-10T03:00:16.357Z,21.24
2023-08-10T03:02:44.682Z,21.20
2023-08-10T03:05:12.743Z,21.17
2023-08-10T03:07:40.639Z,21.10
2023-08-10T03:10:10.903Z,21.12
2023-08-10T03:12:39.541Z,21.08
2023-08-10T03:15:10.834Z,21.10
2023-08-10T03:17:40.735Z,21.05
2023-08-10T03:20:18.720Z,21.05
2023-08-10T03:22:46.998Z,21.03
2023-08-10T03:25:16.111Z,21.03
2023-08-10T03:27:44.173Z,21.01
2023-08-10T03:30:12.350Z,20.94
2023-08-10T03:32:41.314Z,20.93
2023-08-10T03:35:09.911Z,20.91
2023-08-10T03:37:38.165Z,20.90
2023-08-10T03:40:07.834Z,20.90
2023-08-10T03:42:36.002Z,20.87
2023-08-10T03:45:04.180Z,20.88
2023-08-10T03:47:33.257Z,20.87
2023-08-10T03:50:01.155Z,20.79
2023-08-10T03:52:29.098Z,20.72
2023-08-10T03:54:57.061Z,20.65
2023-08-10T03:57:25.120Z,20.60
2023-08-10T03:59:52.991Z,20.55
2023-08-10T04:02:23.989Z,20.48
2023-08-10T04:04:51.933Z,20.45
2023-08-10T04:07:19.809Z,20.40
2023-08-10T04:09:50.188Z,20.32
2023-08-10T04:12:18.949Z,20.29
2023-08-10T04:14:46.784Z,20.31
2023-08-10T04:17:14.619Z,20.26
2023-08-10T04:19:42.480Z,20.24
2023-08-10T04:22:10.373Z,20.21
2023-08-10T04:24:38.241Z,20.17
2023-08-10T04:27:07.182Z,20.20
2023-08-10T04:29:41.066Z,20.25
2023-08-10T04:32:09.216Z,20.29
2023-08-10T04:34:47.316Z,20.35
2023-08-10T04:37:19.096Z,20.26
2023-08-10T04:39:50.372Z,20.25
2023-08-10T04:42:18.271Z,20.31
2023-08-10T04:44:46.140Z,20.43
2023-08-10T04:47:14.263Z,20.52
2023-08-10T04:49:42.265Z,20.63
2023-08-10T04:52:10.627Z,20.72
2023-08-10T04:54:39.293Z,20.83
2023-08-10T04:57:07.266Z,20.93
2023-08-10T04:59:37.534Z,20.98
2023-08-10T05:02:06.541Z,21.03
2023-08-10T05:04:34.662Z,21.04
2023-08-10T05:07:02.747Z,21.05
2023-08-10T05:09:32.481Z,21.14
2023-08-10T05:12:02.550Z,21.22
2023-08-10T05:14:30.560Z,21.31
2023-08-10T05:16:58.494Z,21.35
2023-08-10T05:19:26.705Z,21.41
2023-08-10T05:21:55.838Z,21.49
2023-08-10T05:24:23.780Z,21.52
2023-08-10T05:26:51.703Z,21.56
2023-08-10T05:29:22.667Z,21.58
2023-08-10T05:31:51.036Z,21.65
2023-08-10T05:34:18.970Z,21.73
2023-08-10T05:36:46.846Z,21.80
2023-08-10T05:39:18.336Z,21.83
2023-08-10T05:41:46.063Z,21.85
2023-08-10T05:44:14.689Z,21.80
2023-08-10T05:46:43.585Z,21.69
2023-08-10T05:49:11.290Z,21.63
2023-08-10T05:51:39.061Z,21.49
2023-08-10T05:54:07.851Z,21.45
2023-08-10T05:56:38.520Z,21.43
2023-08-10T05:59:06.145Z,21.46
2023-08-10T06:01:33.952Z,21.48
2023-08-10T06:04:04.359Z,21.56
2023-08-10T06:06:33.369Z,21.58
2023-08-10T06:09:01.010Z,21.56
2023-08-10T06:11:42.132Z,21.52
2023-08-10T06:14:16.552Z,21.53
2023-08-10T06:16:44.248Z,21.60
2023-08-10T06:19:12.199Z,21.62
2023-08-10T06:21:40.227Z,21.69
2023-08-10T06:24:10.614Z,21.75
2023-08-10T06:26:40.340Z,21.76
2023-08-10T06:29:08.139Z,21.82
2023-08-10T06:31:36.743Z,21.89
2023-08-10T06:34:04.675Z,21.96
2023-08-10T06:36:32.745Z,22.00
2023-08-10T06:39:00.636Z,22.04
2023-08-10T06:41:29.152Z,22.03
2023-08-10T06:43:56.814Z,22.05
2023-08-10T06:46:24.894Z,22.10
2023-08-10T06:48:52.744Z,22.11
2023-08-10T06:51:20.668Z,22.08
2023-08-10T06:53:48.403Z,22.10
2023-08-10T06:56:17.383Z,22.17
2023-08-10T06:59:19.897Z,22.21
2023-08-10T07:01:36.077Z,22.34
2023-08-10T07:04:03.913Z,22.44
2023-08-10T07:06:32.839Z,22.51
2023-08-10T07:09:10.971Z,22.58
2023-08-10T07:11:39.896Z,22.63
2023-08-10T07:14:07.727Z,22.60
2023-08-10T07:16:35.450Z,22.58
2023-08-10T07:19:03.389Z,22.63
2023-08-10T07:21:31.051Z,22.62
2023-08-10T07:23:59.105Z,22.65
2023-08-10T07:26:26.868Z,22.63
2023-08-10T07:28:54.501Z,22.58
2023-08-10T07:31:22.789Z,22.63
2023-08-10T07:33:51.580Z,22.75
2023-08-10T07:36:19.453Z,22.80
2023-08-10T07:38:47.183Z,22.82
2023-08-10T07:41:15.185Z,22.80
2023-08-10T07:43:46.053Z,22.76
2023-08-10T07:46:13.831Z,22.62
2023-08-10T07:48:42.261Z,22.56
2023-08-10T07:51:10.295Z,22.59
2023-08-10T07:53:38.046Z,22.68
2023-08-10T07:56:06.279Z,22.75
2023-08-10T07:58:36.706Z,22.80
2023-08-10T08:01:09.133Z,22.85
2023-08-10T08:03:40.777Z,22.87
2023-08-10T08:06:09.811Z,22.96
2023-08-10T08:08:37.560Z,23.11
2023-08-10T08:11:05.302Z,23.21
2023-08-10T08:13:32.991Z,23.31
2023-08-10T08:16:01.104Z,23.41
2023-08-10T08:18:58.884Z,23.52
2023-08-10T08:21:29.379Z,23.72
2023-08-10T08:23:57.771Z,23.95
2023-08-10T08:26:26.066Z,24.17
2023-08-10T08:28:57.150Z,24.50
2023-08-10T08:31:31.219Z,24.69
2023-08-10T08:33:59.304Z,24.69
2023-08-10T08:36:28.259Z,24.76
2023-08-10T08:38:57.835Z,24.95
2023-08-10T08:41:28.654Z,25.12
2023-08-10T08:43:57.015Z,25.20
2023-08-10T08:46:29.557Z,25.26
2023-08-10T08:48:58.019Z,25.34
2023-08-10T08:51:26.082Z,25.40
2023-08-10T08:53:54.389Z,25.47
2023-08-10T08:56:22.232Z,25.40
2023-08-10T08:58:50.958Z,25.35
2023-08-10T09:01:20.465Z,25.43
2023-08-10T09:03:49.659Z,25.67
2023-08-10T09:06:18.105Z,25.92
2023-08-10T09:08:48.200Z,26.13
2023-08-10T09:11:16.114Z,26.30
2023-08-10T09:13:43.834Z,26.36
2023-08-10T09:16:14.654Z,26.44
2023-08-10T09:18:46.045Z,26.47
2023-08-10T09:21:15.944Z,26.43
2023-08-10T09:23:46.293Z,26.43
2023-08-10T09:26:21.620Z,26.37
2023-08-10T09:28:50.701Z,26.37
2023-08-10T09:31:29.341Z,26.51
2023-08-10T09:34:00.754Z,26.55
2023-08-10T09:36:31.863Z,26.67
2023-08-10T09:39:02.593Z,26.78
2023-08-10T09:41:31.060Z,26.75
2023-08-10T09:44:07.401Z,26.70
2023-08-10T09:46:35.652Z,26.70
2023-08-10T09:49:04.841Z,26.67
2023-08-10T09:51:39.530Z,26.65
2023-08-10T09:54:07.885Z,26.75
2023-08-10T09:56:35.723Z,26.82
2023-08-10T09:59:04.050Z,26.89
2023-08-10T10:01:31.966Z,26.96
2023-08-10T10:03:59.990Z,26.98
2023-08-10T10:06:27.942Z,26.98
2023-08-10T10:08:59.610Z,27.00
2023-08-10T10:11:30.484Z,27.02
2023-08-10T10:13:58.964Z,27.03
2023-08-10T10:16:29.170Z,26.95
2023-08-10T10:18:57.031Z,26.99
2023-08-10T10:21:25.777Z,26.99
2023-08-10T10:23:56.673Z,26.94
2023-08-10T10:26:24.378Z,26.99
2023-08-10T10:29:13.635Z,27.00
2023-08-10T10:31:41.977Z,27.06
2023-08-10T10:34:19.991Z,27.13
2023-08-10T10:36:51.622Z,27.13
2023-08-10T10:39:22.304Z,27.13
2023-08-10T10:41:52.555Z,27.17
2023-08-10T10:44:20.956Z,27.17
2023-08-10T10:46:48.712Z,27.20
2023-08-10T10:49:21.635Z,27.23
2023-08-10T10:51:53.885Z,27.20
2023-08-10T10:54:22.827Z,27.13
2023-08-10T10:56:51.278Z,26.92
2023-08-10T10:59:21.472Z,26.79
2023-08-10T11:01:49.930Z,26.75
2023-08-10T11:04:18.072Z,26.74
2023-08-10T11:06:49.239Z,26.78
2023-08-10T11:09:16.969Z,26.88
2023-08-10T11:11:50.520Z,26.98
2023-08-10T11:14:18.365Z,27.02
2023-08-10T11:16:48.183Z,27.13
2023-08-10T11:19:15.900Z,27.15
2023-08-10T11:21:45.627Z,27.15
2023-08-10T11:24:14.287Z,27.12
2023-08-10T11:26:42.884Z,27.10
2023-08-10T11:29:11.592Z,27.19
2023-08-10T11:31:46.871Z,27.36
2023-08-10T11:34:24.386Z,27.64
2023-08-10T11:36:54.392Z,27.87
2023-08-10T11:39:26.412Z,28.09
2023-08-10T11:41:55.160Z,28.16
2023-08-10T11:44:37.998Z,28.32
2023-08-10T11:47:14.172Z,28.77
2023-08-10T11:49:42.338Z,29.14
2023-08-10T11:52:19.210Z,29.16
2023-08-10T11:55:18.672Z,29.19
2023-08-10T11:57:59.665Z,29.39
2023-08-10T12:00:31.910Z,29.43
2023-08-10T12:03:16.177Z,29.45
2023-08-10T12:05:54.342Z,29.30
2023-08-10T12:08:36.220Z,29.18
2023-08-10T12:11:06.337Z,28.98
2023-08-10T12:13:47.492Z,28.75
2023-08-10T12:16:18.326Z,28.54
2023-08-10T12:18:47.038Z,28.33
2023-08-10T12:21:15.218Z,28.23
2023-08-10T12:23:43.953Z,28.23
2023-08-10T12:26:14.804Z,28.29
2023-08-10T12:28:45.229Z,28.47
2023-08-10T12:31:13.349Z,29.08
2023-08-10T12:33:42.487Z,29.71
2023-08-10T12:36:10.741Z,30.08
2023-08-10T12:38:40.443Z,30.12
2023-08-10T12:41:10.149Z,30.05
2023-08-10T12:43:38.147Z,29.97
2023-08-10T12:46:07.965Z,29.74
2023-08-10T12:48:35.926Z,29.54
2023-08-10T12:51:04.043Z,29.39
2023-08-10T12:53:31.997Z,29.29
2023-08-10T12:56:03.711Z,29.19
2023-08-10T12:58:31.867Z,29.16
2023-08-10T13:00:59.751Z,29.15
2023-08-10T13:03:29.278Z,29.15
2023-08-10T13:05:57.188Z,29.20
2023-08-10T13:08:25.294Z,29.33
2023-08-10T13:10:53.480Z,29.43
2023-08-10T13:13:21.497Z,29.76
2023-08-10T13:15:49.481Z,30.08
2023-08-10T13:18:17.538Z,30.25
2023-08-10T13:20:45.583Z,30.26
2023-08-10T13:23:13.572Z,30.24
2023-08-10T13:25:41.697Z,30.19
2023-08-10T13:28:09.772Z,30.08
2023-08-10T13:30:39.951Z,30.00
2023-08-10T13:33:07.964Z,30.09
2023-08-10T13:35:35.899Z,30.25
2023-08-10T13:38:04.240Z,30.53
2023-08-10T13:40:32.234Z,30.57
2023-08-10T13:43:00.211Z,30.47
2023-08-10T13:45:28.384Z,30.40
2023-08-10T13:47:56.383Z,30.14
2023-08-10T13:50:24.463Z,29.87
2023-08-10T13:52:52.300Z,29.59
2023-08-10T13:55:20.564Z,29.36
2023-08-10T13:57:48.479Z,29.36
2023-08-10T14:00:16.467Z,29.76
2023-08-10T14:02:44.511Z,30.26
2023-08-10T14:05:14.023Z,30.77
2023-08-10T14:07:42.098Z,31.19
2023-08-10T14:10:12.483Z,31.53
2023-08-10T14:12:40.507Z,31.56
2023-08-10T14:15:08.949Z,31.29
2023-08-10T14:17:37.110Z,31.04
2023-08-10T14:20:05.911Z,30.77
2023-08-10T14:22:34.049Z,30.47
2023-08-10T14:25:03.205Z,30.14
2023-08-10T14:27:32.167Z,29.85
2023-08-10T14:30:00.225Z,29.69
2023-08-10T14:32:28.326Z,29.56
2023-08-10T14:34:56.442Z,29.36
2023-08-10T14:37:27.449Z,29.26
2023-08-10T14:39:55.738Z,29.35
2023-08-10T14:42:23.573Z,29.60
2023-08-10T14:45:00.030Z,29.64
2023-08-10T14:47:27.899Z,29.76
2023-08-10T14:49:55.687Z,30.04
2023-08-10T14:52:23.400Z,30.35
2023-08-10T14:54:51.150Z,30.66
2023-08-10T14:57:19.040Z,31.00
2023-08-10T14:59:46.797Z,31.15
2023-08-10T15:02:14.557Z,31.07
2023-08-10T15:04:45.274Z,30.92
2023-08-10T15:07:13.282Z,30.88
2023-08-10T15:09:40.910Z,31.21
2023-08-10T15:12:08.766Z,31.61
2023-08-10T15:14:36.469Z,31.91
2023-08-10T15:17:04.480Z,32.07
2023-08-10T15:19:32.274Z,31.89
2023-08-10T15:22:02.496Z,31.66
2023-08-10T15:24:32.228Z,31.46
2023-08-10T15:27:07.948Z,31.18
2023-08-10T15:29:35.622Z,30.79
2023-08-10T15:32:03.466Z,30.64
2023-08-10T15:34:31.278Z,30.72
2023-08-10T15:37:00.723Z,30.74
2023-08-10T15:39:28.443Z,30.76
2023-08-10T15:41:57.579Z,30.77
2023-08-10T15:44:28.062Z,30.87
2023-08-10T15:46:56.110Z,30.91
2023-08-10T15:49:23.978Z,30.98
2023-08-10T15:51:52.819Z,31.14
2023-08-10T15:54:20.706Z,31.28
2023-08-10T15:56:48.444Z,31.32
2023-08-10T15:59:16.092Z,31.34
2023-08-10T16:01:43.881Z,31.35
2023-08-10T16:04:11.663Z,31.34
2023-08-10T16:06:39.970Z,31.27
2023-08-10T16:09:08.109Z,31.07
2023-08-10T16:11:36.012Z,30.86
2023-08-10T16:14:03.771Z,30.63
2023-08-10T16:16:31.633Z,30.52
2023-08-10T16:18:59.390Z,30.46
2023-08-10T16:21:27.131Z,30.42
2023-08-10T16:23:54.964Z,30.40
2023-08-10T16:26:22.707Z,30.40
2023-08-10T16:28:56.408Z,30.32
2023-08-10T16:31:27.489Z,30.21
2023-08-10T16:33:55.252Z,30.09
2023-08-10T16:36:22.983Z,29.98
2023-08-10T16:38:54.043Z,29.78
2023-08-10T16:41:25.944Z,29.60
2023-08-10T16:43:56.134Z,29.46
2023-08-10T16:46:27.279Z,29.36
2023-08-10T16:48:55.395Z,29.20
2023-08-10T16:51:23.569Z,29.02
2023-08-10T16:53:51.509Z,28.74
2023-08-10T16:56:21.099Z,28.49
2023-08-10T16:58:50.310Z,28.23
2023-08-10T17:01:18.832Z,27.94
2023-08-10T17:03:46.838Z,27.61
2023-08-10T17:06:14.957Z,27.44
2023-08-10T17:08:42.879Z,27.26
2023-08-10T17:11:10.828Z,27.20
2023-08-10T17:13:39.060Z,27.13
2023-08-10T17:16:07.174Z,27.06
2023-08-10T17:18:35.317Z,26.89
2023-08-10T17:21:03.257Z,26.67
2023-08-10T17:23:31.181Z,26.39
2023-08-10T17:25:59.286Z,26.12
2023-08-10T17:28:30.601Z,25.89
2023-08-10T17:30:58.583Z,25.71
2023-08-10T17:33:31.758Z,25.57
2023-08-10T17:36:00.124Z,25.43
2023-08-10T17:38:28.133Z,25.30
2023-08-10T17:40:56.178Z,25.24
2023-08-10T17:43:24.745Z,25.17
2023-08-10T17:45:52.635Z,25.06
2023-08-10T17:48:20.469Z,24.95
2023-08-10T17:50:48.657Z,24.83
2023-08-10T17:53:16.584Z,24.75
2023-08-10T17:55:46.080Z,24.65
2023-08-10T17:58:14.005Z,24.54
2023-08-10T18:00:44.253Z,24.47
2023-08-10T18:03:18.245Z,24.35
2023-08-10T18:05:46.222Z,24.25
2023-08-10T18:08:14.200Z,24.18
2023-08-10T18:10:44.587Z,24.13
2023-08-10T18:13:12.377Z,24.14
2023-08-10T18:15:40.307Z,24.12
2023-08-10T18:18:08.559Z,24.14
2023-08-10T18:20:36.294Z,24.10
2023-08-10T18:23:07.181Z,24.05
2023-08-10T18:25:40.532Z,24.02
2023-08-10T18:28:08.256Z,23.92
2023-08-10T18:30:36.087Z,23.82
2023-08-10T18:33:03.979Z,23.75
2023-08-10T18:35:32.124Z,23.73
2023-08-10T18:38:00.077Z,23.65
2023-08-10T18:40:38.657Z,23.65
2023-08-10T18:43:09.141Z,23.65
2023-08-10T18:45:37.245Z,23.68
2023-08-10T18:48:06.015Z,23.70
2023-08-10T18:50:34.120Z,23.72
2023-08-10T18:53:02.044Z,23.79
2023-08-10T18:55:30.194Z,23.78
2023-08-10T18:57:58.167Z,23.83
2023-08-10T19:00:26.765Z,23.87
2023-08-10T19:02:55.158Z,23.89
2023-08-10T19:05:23.539Z,23.90
2023-08-10T19:07:51.562Z,23.93
2023-08-10T19:10:21.792Z,23.90
2023-08-10T19:12:49.828Z,23.92
2023-08-10T19:15:19.058Z,23.92
2023-08-10T19:17:47.795Z,23.87
2023-08-10T19:20:15.903Z,23.85
2023-08-10T19:22:44.344Z,23.78
2023-08-10T19:25:12.577Z,23.78
2023-08-10T19:27:40.501Z,23.70
2023-08-10T19:30:09.374Z,23.68
2023-08-10T19:32:37.505Z,23.63
2023-08-10T19:35:05.885Z,23.61
2023-08-10T19:37:33.728Z,23.54
2023-08-10T19:40:02.161Z,23.48
2023-08-10T19:42:32.234Z,23.42
2023-08-10T19:45:00.152Z,23.35
2023-08-10T19:47:31.602Z,23.27
2023-08-10T19:49:59.980Z,23.23
2023-08-10T19:52:29.710Z,23.15
2023-08-10T19:54:58.214Z,23.08
2023-08-10T19:57:26.262Z,23.06
2023-08-10T19:59:57.028Z,23.03
2023-08-10T20:02:25.741Z,23.04
2023-08-10T20:04:53.880Z,23.00
2023-08-10T20:07:22.021Z,22.99
2023-08-10T20:09:50.288Z,22.95
2023-08-10T20:12:18.160Z,22.93
2023-08-10T20:14:46.220Z,22.89
2023-08-10T20:17:17.417Z,22.87
2023-08-10T20:19:45.495Z,22.86
2023-08-10T20:22:16.520Z,22.85
2023-08-10T20:24:44.482Z,22.83
2023-08-10T20:27:14.248Z,22.77
2023-08-10T20:29:42.590Z,22.72
2023-08-10T20:32:17.548Z,22.66
2023-08-10T20:34:45.785Z,22.62
2023-08-10T20:37:14.368Z,22.56
2023-08-10T20:39:42.673Z,22.51
2023-08-10T20:42:14.288Z,22.49
2023-08-10T20:44:42.307Z,22.49
2023-08-10T20:47:09.950Z,22.47
2023-08-10T20:49:37.705Z,22.42
2023-08-10T20:52:06.536Z,22.41
2023-08-10T20:54:34.692Z,22.37
2023-08-10T20:57:03.050Z,22.34
2023-08-10T20:59:35.212Z,22.31
2023-08-10T21:02:04.200Z,22.32
2023-08-10T21:04:32.256Z,22.32
2023-08-10T21:07:00.095Z,22.25
2023-08-10T21:09:27.872Z,22.27
2023-08-10T21:11:57.166Z,22.20
2023-08-10T21:14:24.834Z,22.18
2023-08-10T21:16:52.593Z,22.14
2023-08-10T21:19:20.297Z,22.10
2023-08-10T21:21:50.281Z,22.11
2023-08-10T21:24:17.977Z,22.07
2023-08-10T21:26:45.757Z,22.07
2023-08-10T21:29:13.451Z,22.04
2023-08-10T21:31:41.157Z,22.01
2023-08-10T21:34:09.020Z,22.04
2023-08-10T21:36:36.862Z,21.97
2023-08-10T21:39:05.020Z,21.93
2023-08-10T21:41:32.891Z,21.89
2023-08-10T21:44:00.567Z,21.86
2023-08-10T21:46:28.483Z,21.80
2023-08-10T21:48:56.401Z,21.75
2023-08-10T21:51:24.161Z,21.73
2023-08-10T21:53:52.466Z,21.67
2023-08-10T21:56:20.200Z,21.69
2023-08-10T21:58:48.181Z,21.66
2023-08-10T22:01:15.981Z,21.62
2023-08-10T22:03:44.711Z,21.63
2023-08-10T22:06:12.555Z,21.56
2023-08-10T22:08:40.442Z,21.56
2023-08-10T22:11:08.291Z,21.56
2023-08-10T22:13:36.215Z,21.53
2023-08-10T22:16:04.760Z,21.50
2023-08-10T22:18:35.886Z,21.46
2023-08-10T22:21:03.976Z,21.45
2023-08-10T22:23:31.879Z,21.45
2023-08-10T22:26:00.452Z,21.42
2023-08-10T22:28:28.235Z,21.38
2023-08-10T22:30:56.204Z,21.38
2023-08-10T22:33:24.120Z,21.32
2023-08-10T22:35:51.992Z,21.30
2023-08-10T22:38:20.039Z,21.25
2023-08-10T22:40:47.848Z,21.22
2023-08-10T22:43:15.678Z,21.20
2023-08-10T22:45:43.908Z,21.15
2023-08-10T22:48:11.739Z,21.17
2023-08-10T22:50:40.472Z,21.17
2023-08-10T22:53:08.294Z,21.12
2023-08-10T22:55:36.126Z,21.17
2023-08-10T22:58:03.895Z,21.14
2023-08-10T23:00:31.669Z,21.12
2023-08-10T23:02:59.454Z,21.11
2023-08-10T23:05:27.225Z,21.08
2023-08-10T23:07:54.942Z,21.11
2023-08-10T23:10:22.687Z,21.12
2023-08-10T23:12:50.557Z,21.14
2023-08-10T23:15:19.196Z,21.08
2023-08-10T23:17:47.199Z,21.04
2023-08-10T23:20:15.126Z,21.04
2023-08-10T23:22:44.252Z,21.08
2023-08-10T23:25:15.240Z,21.15
2023-08-10T23:27:43.259Z,21.17
2023-08-10T23:30:12.599Z,21.17
2023-08-10T23:32:40.481Z,21.12
2023-08-10T23:35:08.757Z,21.10
2023-08-10T23:37:39.832Z,21.08
2023-08-10T23:40:12.717Z,21.15
2023-08-10T23:42:43.902Z,21.21
2023-08-10T23:45:13.379Z,21.24
2023-08-10T23:47:42.822Z,21.30
2023-08-10T23:50:13.119Z,21.30
2023-08-10T23:52:40.874Z,21.27
2023-08-10T23:55:09.954Z,21.30
2023-08-10T23:57:38.180Z,21.25
